createdAt,value
2018-11-13T00:01:41.922Z,10.47
2018-11-13T00:04:08.928Z,9.90
2018-11-13T00:06:36.401Z,15.57
2018-11-13T00:09:05.228Z,11.17
2018-11-13T00:11:32.330Z,8.93
2018-11-13T00:13:59.385Z,15.20
2018-11-13T00:16:26.423Z,10.97
2018-11-13T00:18:53.618Z,13.40
2018-11-13T00:21:20.810Z,16.60
2018-11-13T00:23:47.864Z,10.97
2018-11-13T00:26:15.143Z,10.85
2018-11-13T00:28:42.174Z,9.63
2018-11-13T00:31:09.232Z,12.67
2018-11-13T00:33:36.247Z,13.13
2018-11-13T00:36:03.778Z,15.90
2018-11-13T00:38:30.774Z,11.80
2018-11-13T00:40:58.876Z,11.63
2018-11-13T00:43:26.125Z,11.33
2018-11-13T00:45:53.487Z,10.10
2018-11-13T00:48:20.135Z,10.07
2018-11-13T00:50:47.170Z,9.30
2018-11-13T00:53:14.951Z,11.23
2018-11-13T00:55:41.967Z,13.80
2018-11-13T00:58:09.502Z,14.27
2018-11-13T01:00:36.844Z,12.27
2018-11-13T01:03:04.162Z,13.03
2018-11-13T01:05:31.295Z,10.27
2018-11-13T01:07:58.388Z,18.40
2018-11-13T01:10:25.395Z,12.47
2018-11-13T01:12:52.655Z,11.97
2018-11-13T01:15:20.338Z,11.07
2018-11-13T01:17:47.876Z,11.13
2018-11-13T01:20:16.934Z,10.03
2018-11-13T01:22:43.949Z,12.37
2018-11-13T01:25:12.082Z,12.90
2018-11-13T01:27:39.527Z,14.03
2018-11-13T01:30:08.131Z,12.10
2018-11-13T01:32:37.556Z,12.43
2018-11-13T01:35:06.152Z,11.43
2018-11-13T01:37:33.176Z,11.57
2018-11-13T01:40:00.479Z,12.37
2018-11-13T01:42:27.630Z,10.03
2018-11-13T01:44:54.639Z,13.30
2018-11-13T01:47:21.726Z,12.17
2018-11-13T01:49:48.771Z,11.63
2018-11-13T01:52:15.794Z,10.00
2018-11-13T01:54:42.903Z,12.40
2018-11-13T01:57:09.964Z,13.97
2018-11-13T01:59:37.020Z,10.80
2018-11-13T02:02:04.815Z,11.70
2018-11-13T02:04:32.256Z,11.03
2018-11-13T02:06:59.351Z,13.07
2018-11-13T02:09:26.468Z,10.90
2018-11-13T02:11:53.459Z,9.40
2018-11-13T02:14:20.463Z,10.73
2018-11-13T02:16:47.483Z,10.10
2018-11-13T02:19:14.492Z,11.60
2018-11-13T02:21:41.517Z,10.00
2018-11-13T02:24:09.002Z,11.40
2018-11-13T02:26:36.008Z,9.43
2018-11-13T02:29:03.033Z,12.47
2018-11-13T02:31:30.336Z,12.83
2018-11-13T02:34:28.410Z,8.73
2018-11-13T02:36:55.435Z,10.90
2018-11-13T02:39:22.434Z,10.03
2018-11-13T02:41:49.579Z,13.83
2018-11-13T02:44:16.772Z,16.03
2018-11-13T02:46:43.773Z,10.50
2018-11-13T02:49:10.786Z,8.77
2018-11-13T02:51:37.888Z,10.60
2018-11-13T02:54:05.095Z,13.43
2018-11-13T02:56:33.187Z,11.37
2018-11-13T02:59:00.291Z,11.57
2018-11-13T03:01:27.309Z,12.73
2018-11-13T03:03:54.335Z,13.00
2018-11-13T03:06:21.780Z,10.83
2018-11-13T03:08:48.819Z,11.13
2018-11-13T03:11:15.854Z,12.80
2018-11-13T03:13:43.111Z,11.13
2018-11-13T03:16:10.168Z,9.67
2018-11-13T03:18:37.252Z,12.60
2018-11-13T03:21:04.528Z,10.60
2018-11-13T03:23:31.543Z,11.07
2018-11-13T03:25:58.679Z,11.40
2018-11-13T03:28:25.850Z,11.73
2018-11-13T03:30:52.897Z,12.13
2018-11-13T03:33:19.920Z,12.17
2018-11-13T03:35:47.043Z,12.40
2018-11-13T03:38:14.075Z,11.43
2018-11-13T03:40:41.100Z,11.10
2018-11-13T03:43:08.277Z,9.83
2018-11-13T03:45:35.544Z,12.97
2018-11-13T03:48:02.649Z,10.43
2018-11-13T03:50:30.044Z,10.27
2018-11-13T03:52:57.068Z,10.00
2018-11-13T03:55:24.068Z,11.53
2018-11-13T03:57:51.097Z,11.20
2018-11-13T04:00:20.230Z,24.40
2018-11-13T04:02:47.228Z,10.97
2018-11-13T04:05:15.629Z,8.93
2018-11-13T04:07:50.867Z,10.70
2018-11-13T04:10:18.892Z,14.67
2018-11-13T04:12:48.444Z,11.90
2018-11-13T04:15:16.808Z,16.27
2018-11-13T04:20:41.607Z,12.87
2018-11-13T04:23:08.815Z,17.77
2018-11-13T04:25:35.959Z,17.50
2018-11-13T04:28:03.214Z,13.17
2018-11-13T04:30:30.416Z,17.63
2018-11-13T04:32:57.431Z,10.87
2018-11-13T04:35:24.611Z,16.73
2018-11-13T04:37:51.654Z,17.43
2018-11-13T04:40:19.676Z,14.87
2018-11-13T04:42:48.191Z,13.73
2018-11-13T04:45:16.316Z,14.27
2018-11-13T04:47:44.704Z,17.30
2018-11-13T04:50:13.918Z,13.43
2018-11-13T04:52:41.228Z,13.23
2018-11-13T04:55:08.901Z,18.17
2018-11-13T04:57:36.028Z,18.20
2018-11-13T05:00:05.099Z,18.17
2018-11-13T05:02:32.102Z,12.27
2018-11-13T05:04:59.172Z,14.30
2018-11-13T05:07:26.225Z,13.93
2018-11-13T05:09:53.296Z,12.57
2018-11-13T05:12:20.557Z,13.30
2018-11-13T05:14:47.627Z,11.93
2018-11-13T05:17:14.820Z,21.87
2018-11-13T05:19:42.247Z,13.20
2018-11-13T05:22:09.315Z,13.60
2018-11-13T05:24:36.461Z,16.23
2018-11-13T05:27:03.796Z,15.27
2018-11-13T05:29:30.843Z,19.70
2018-11-13T05:31:57.911Z,18.62
2018-11-13T05:34:25.558Z,18.10
2018-11-13T05:36:52.563Z,21.67
2018-11-13T05:39:19.648Z,13.93
2018-11-13T05:41:46.994Z,15.13
2018-11-13T05:44:14.071Z,17.83
2018-11-13T05:46:41.066Z,16.70
2018-11-13T05:49:08.537Z,13.03
2018-11-13T05:51:35.619Z,14.47
2018-11-13T05:54:02.617Z,12.70
2018-11-13T05:56:29.660Z,18.40
2018-11-13T05:58:56.699Z,14.60
2018-11-13T06:01:23.889Z,18.97
2018-11-13T06:03:51.041Z,17.43
2018-11-13T06:06:18.077Z,19.30
2018-11-13T06:08:45.200Z,23.18
2018-11-13T06:11:12.760Z,21.15
2018-11-13T06:13:39.809Z,23.57
2018-11-13T06:16:07.295Z,17.00
2018-11-13T06:18:34.387Z,18.07
2018-11-13T06:21:01.434Z,16.37
2018-11-13T06:23:28.480Z,21.40
2018-11-13T06:25:55.534Z,17.80
2018-11-13T06:28:22.519Z,16.67
2018-11-13T06:30:49.540Z,17.43
2018-11-13T06:33:16.605Z,17.87
2018-11-13T06:35:43.652Z,19.17
2018-11-13T06:38:10.715Z,20.27
2018-11-13T06:40:37.862Z,20.30
2018-11-13T06:43:05.280Z,27.30
2018-11-13T06:45:32.290Z,18.00
2018-11-13T06:47:59.412Z,19.37
2018-11-13T06:50:26.976Z,21.43
2018-11-13T06:52:53.999Z,18.60
2018-11-13T06:55:24.849Z,17.97
2018-11-13T06:57:51.859Z,19.75
2018-11-13T07:00:19.034Z,22.07
2018-11-13T07:02:46.099Z,16.87
2018-11-13T07:05:14.472Z,19.37
2018-11-13T07:07:41.948Z,20.17
2018-11-13T07:10:11.114Z,21.50
2018-11-13T07:12:38.900Z,17.67
2018-11-13T07:15:06.836Z,20.63
2018-11-13T07:17:34.093Z,17.37
2018-11-13T07:20:01.095Z,18.57
2018-11-13T07:22:28.119Z,24.13
2018-11-13T07:24:55.274Z,19.93
2018-11-13T07:27:22.336Z,19.82
2018-11-13T07:29:49.340Z,27.87
2018-11-13T07:32:16.425Z,20.93
2018-11-13T07:34:43.467Z,21.20
2018-11-13T07:37:10.492Z,32.07
2018-11-13T07:39:37.826Z,19.73
2018-11-13T07:42:04.948Z,18.20
2018-11-13T07:44:32.065Z,17.67
2018-11-13T07:46:59.629Z,19.07
2018-11-13T07:49:26.705Z,21.27
2018-11-13T07:51:54.088Z,17.93
2018-11-13T07:54:21.353Z,16.20
2018-11-13T07:56:48.470Z,19.47
2018-11-13T07:59:15.475Z,20.93
2018-11-13T08:01:42.521Z,18.13
2018-11-13T08:04:09.749Z,21.97
2018-11-13T08:06:36.809Z,25.13
2018-11-13T08:09:06.112Z,17.45
2018-11-13T08:11:33.169Z,22.00
2018-11-13T08:14:00.197Z,17.45
2018-11-13T08:16:27.833Z,20.07
2018-11-13T08:18:54.911Z,14.63
2018-11-13T08:21:21.909Z,20.48
2018-11-13T08:23:49.016Z,22.57
2018-11-13T08:26:16.115Z,21.70
2018-11-13T08:28:43.121Z,18.12
2018-11-13T08:31:10.325Z,19.23
2018-11-13T08:33:37.495Z,24.30
2018-11-13T08:36:04.757Z,23.07
2018-11-13T08:38:31.827Z,17.00
2018-11-13T08:40:58.843Z,22.87
2018-11-13T08:43:25.905Z,20.57
2018-11-13T08:45:53.297Z,14.80
2018-11-13T08:48:20.352Z,17.15
2018-11-13T08:50:47.457Z,15.08
2018-11-13T08:53:15.016Z,16.52
2018-11-13T08:55:42.056Z,18.48
2018-11-13T08:58:09.086Z,18.43
2018-11-13T09:00:36.234Z,23.60
2018-11-13T09:03:03.409Z,15.93
2018-11-13T09:05:30.435Z,18.90
2018-11-13T09:07:57.565Z,23.60
2018-11-13T09:10:24.585Z,20.92
2018-11-13T09:12:51.640Z,17.57
2018-11-13T09:15:20.355Z,24.27
2018-11-13T09:17:47.366Z,18.80
2018-11-13T09:20:15.498Z,21.57
2018-11-13T09:22:42.753Z,22.13
2018-11-13T09:25:12.044Z,16.40
2018-11-13T09:27:39.102Z,18.98
2018-11-13T09:30:09.494Z,16.17
2018-11-13T09:32:36.600Z,20.88
2018-11-13T09:35:04.418Z,28.73
2018-11-13T09:37:31.907Z,18.57
2018-11-13T09:39:58.929Z,21.52
2018-11-13T09:42:25.953Z,20.35
2018-11-13T09:44:53.091Z,22.90
2018-11-13T09:47:20.128Z,24.43
2018-11-13T09:49:47.119Z,20.02
2018-11-13T09:52:14.276Z,36.30
2018-11-13T09:54:41.560Z,17.57
2018-11-13T09:57:08.643Z,21.00
2018-11-13T09:59:48.791Z,16.73
2018-11-13T10:02:16.391Z,19.25
2018-11-13T10:04:43.474Z,16.07
2018-11-13T10:07:09.899Z,20.57
2018-11-13T10:09:36.907Z,17.02
2018-11-13T10:12:04.500Z,16.95
2018-11-13T10:14:31.514Z,16.65
2018-11-13T10:16:58.621Z,13.53
2018-11-13T10:19:25.667Z,15.00
2018-11-13T10:21:52.679Z,14.38
2018-11-13T10:24:19.705Z,18.92
2018-11-13T10:26:47.169Z,19.15
2018-11-13T10:29:14.572Z,12.40
2018-11-13T10:31:41.563Z,14.05
2018-11-13T10:34:08.912Z,15.15
2018-11-13T10:36:35.956Z,13.62
2018-11-13T10:39:04.145Z,13.43
2018-11-13T10:41:31.449Z,13.65
2018-11-13T10:43:58.503Z,12.80
2018-11-13T10:46:26.636Z,14.40
2018-11-13T10:48:53.843Z,17.48
2018-11-13T10:51:20.894Z,17.45
2018-11-13T10:53:48.525Z,18.00
2018-11-13T10:56:16.016Z,12.65
2018-11-13T10:58:43.077Z,16.32
2018-11-13T11:01:15.982Z,13.18
2018-11-13T11:03:48.915Z,12.85
2018-11-13T11:06:15.996Z,13.48
2018-11-13T11:08:43.456Z,16.87
2018-11-13T11:11:10.519Z,15.83
2018-11-13T11:13:37.703Z,15.72
2018-11-13T11:16:04.916Z,15.60
2018-11-13T11:18:32.026Z,15.78
2018-11-13T11:20:59.381Z,16.80
2018-11-13T11:23:26.457Z,15.70
2018-11-13T11:25:54.034Z,14.33
2018-11-13T11:28:21.092Z,16.10
2018-11-13T11:30:48.201Z,15.90
2018-11-13T11:33:15.180Z,15.10
2018-11-13T11:35:42.485Z,17.42
2018-11-13T11:38:10.297Z,15.80
2018-11-13T11:40:37.335Z,16.70
2018-11-13T11:43:04.596Z,14.93
2018-11-13T11:45:31.612Z,16.40
2018-11-13T11:47:58.619Z,15.60
2018-11-13T11:50:32.971Z,16.62
2018-11-13T11:53:00.019Z,14.83
2018-11-13T11:55:27.097Z,14.95
2018-11-13T11:57:54.510Z,14.78
2018-11-13T12:00:27.412Z,18.05
2018-11-13T12:02:54.504Z,22.95
2018-11-13T12:05:21.560Z,17.12
2018-11-13T12:07:48.984Z,22.07
2018-11-13T12:10:16.558Z,16.70
2018-11-13T12:12:43.608Z,15.90
2018-11-13T12:15:12.056Z,16.95
2018-11-13T12:17:39.292Z,17.92
2018-11-13T12:20:07.647Z,17.55
2018-11-13T12:22:34.663Z,16.45
2018-11-13T12:25:01.944Z,15.65
2018-11-13T12:27:28.924Z,12.78
2018-11-13T12:29:55.968Z,15.72
2018-11-13T12:32:23.028Z,15.03
2018-11-13T12:34:50.376Z,17.00
2018-11-13T12:37:17.460Z,15.78
2018-11-13T12:39:45.395Z,18.52
2018-11-13T12:42:12.399Z,17.07
2018-11-13T12:44:39.483Z,14.87
2018-11-13T12:47:06.523Z,16.50
2018-11-13T12:49:34.260Z,19.55
2018-11-13T12:52:07.180Z,16.50
2018-11-13T12:54:34.220Z,16.80
2018-11-13T12:57:01.295Z,18.32
2018-11-13T12:59:28.711Z,18.27
2018-11-13T13:01:56.574Z,17.82
2018-11-13T13:04:23.656Z,14.23
2018-11-13T13:06:50.744Z,15.30
2018-11-13T13:09:17.823Z,17.67
2018-11-13T13:11:44.834Z,16.50
2018-11-13T13:14:12.941Z,14.40
2018-11-13T13:16:39.967Z,23.35
2018-11-13T13:19:07.120Z,18.62
2018-11-13T13:21:34.158Z,15.63
2018-11-13T13:24:01.459Z,15.13
2018-11-13T13:26:28.526Z,13.32
2018-11-13T13:28:56.896Z,17.10
2018-11-13T13:31:24.239Z,17.75
2018-11-13T13:33:51.236Z,16.27
2018-11-13T13:36:18.516Z,14.47
2018-11-13T13:38:45.832Z,14.05
2018-11-13T13:41:12.826Z,15.25
2018-11-13T13:43:40.068Z,18.87
2018-11-13T13:46:07.536Z,14.55
2018-11-13T13:48:35.060Z,14.05
2018-11-13T13:51:02.167Z,15.53
2018-11-13T13:53:29.178Z,13.60
2018-11-13T13:55:56.223Z,12.82
2018-11-13T13:58:24.028Z,12.23
2018-11-13T14:00:51.680Z,10.95
2018-11-13T14:03:18.580Z,10.63
2018-11-13T14:05:46.165Z,10.98
2018-11-13T14:08:13.835Z,8.38
2018-11-13T14:10:40.984Z,10.50
2018-11-13T14:13:08.127Z,14.65
2018-11-13T14:15:35.271Z,12.07
2018-11-13T14:18:02.255Z,9.70
2018-11-13T14:20:29.656Z,12.00
2018-11-13T14:22:56.652Z,10.85
2018-11-13T14:25:23.684Z,15.98
2018-11-13T14:27:51.010Z,9.80
2018-11-13T14:30:20.240Z,13.40
2018-11-13T14:32:48.116Z,16.77
2018-11-13T14:35:15.620Z,12.93
2018-11-13T14:37:42.601Z,15.98
2018-11-13T14:40:14.382Z,12.70
2018-11-13T14:42:41.647Z,10.18
2018-11-13T14:45:09.080Z,11.00
2018-11-13T14:47:36.714Z,16.57
2018-11-13T14:50:06.191Z,12.63
2018-11-13T14:52:33.247Z,14.33
2018-11-13T14:55:00.474Z,12.33
2018-11-13T14:57:27.640Z,9.50
2018-11-13T14:59:54.705Z,12.40
2018-11-13T15:02:22.303Z,15.98
2018-11-13T15:04:49.363Z,11.50
2018-11-13T15:07:16.480Z,12.03
2018-11-13T15:09:43.533Z,9.57
2018-11-13T15:12:10.566Z,9.20
2018-11-13T15:14:37.571Z,10.93
2018-11-13T15:17:05.367Z,10.63
2018-11-13T15:19:32.406Z,12.93
2018-11-13T15:21:59.409Z,15.85
2018-11-13T15:24:26.783Z,14.33
2018-11-13T15:26:53.820Z,21.25
2018-11-13T15:29:20.866Z,16.27
2018-11-13T15:31:47.898Z,8.60
2018-11-13T15:34:14.919Z,7.47
2018-11-13T15:36:42.074Z,5.90
2018-11-13T15:39:10.805Z,5.67
2018-11-13T15:41:38.003Z,6.22
2018-11-13T15:44:05.189Z,4.87
2018-11-13T15:46:32.330Z,5.65
2018-11-13T15:48:59.403Z,4.90
2018-11-13T15:51:26.433Z,5.20
2018-11-13T15:53:53.460Z,2.50
2018-11-13T15:56:20.504Z,3.87
2018-11-13T15:58:47.548Z,7.42
2018-11-13T16:01:14.936Z,3.17
2018-11-13T16:03:42.347Z,2.30
2018-11-13T16:06:09.351Z,3.62
2018-11-13T16:08:36.380Z,2.58
2018-11-13T16:11:03.429Z,2.47
2018-11-13T16:13:30.447Z,5.28
2018-11-13T16:15:57.498Z,3.30
2018-11-13T16:18:25.846Z,6.37
2018-11-13T16:20:52.875Z,9.23
2018-11-13T16:23:20.227Z,8.63
2018-11-13T16:25:47.279Z,9.10
2018-11-13T16:28:14.439Z,2.07
2018-11-13T16:30:41.867Z,4.00
2018-11-13T16:33:08.891Z,8.43
2018-11-13T16:35:36.176Z,4.90
2018-11-13T16:38:04.872Z,5.23
2018-11-13T16:40:32.464Z,4.08
2018-11-13T16:42:59.519Z,4.23
2018-11-13T16:45:27.697Z,5.53
2018-11-13T16:47:55.156Z,7.73
2018-11-13T16:50:24.139Z,7.12
2018-11-13T16:52:51.623Z,2.83
2018-11-13T16:55:24.368Z,5.17
2018-11-13T16:57:51.961Z,3.93
2018-11-13T17:00:20.469Z,4.70
2018-11-13T17:02:47.707Z,4.33
2018-11-13T17:05:16.424Z,3.27
2018-11-13T17:07:43.447Z,2.70
2018-11-13T17:10:12.959Z,6.27
2018-11-13T17:12:40.336Z,4.63
2018-11-13T17:15:09.369Z,4.10
2018-11-13T17:17:36.405Z,4.97
2018-11-13T17:20:03.803Z,2.43
2018-11-13T17:22:30.922Z,1.40
2018-11-13T17:24:57.985Z,1.00
2018-11-13T17:27:25.737Z,2.27
2018-11-13T17:29:52.799Z,2.10
2018-11-13T17:32:19.792Z,3.73
2018-11-13T17:34:46.815Z,3.80
2018-11-13T17:37:13.925Z,5.23
2018-11-13T17:39:40.944Z,6.13
2018-11-13T17:42:08.203Z,1.63
2018-11-13T17:44:35.363Z,4.17
2018-11-13T17:47:02.448Z,4.70
2018-11-13T17:49:29.737Z,1.43
2018-11-13T17:51:56.744Z,7.33
2018-11-13T17:54:23.776Z,1.40
2018-11-13T17:56:51.910Z,10.60
2018-11-13T17:59:18.929Z,2.50
2018-11-13T18:01:45.968Z,1.27
2018-11-13T18:04:13.260Z,3.27
2018-11-13T18:06:40.543Z,1.60
2018-11-13T18:09:09.846Z,2.53
2018-11-13T18:11:37.080Z,4.90
2018-11-13T18:14:04.634Z,2.00
2018-11-13T18:16:31.591Z,1.10
2018-11-13T18:18:59.730Z,3.70
2018-11-13T18:21:26.763Z,1.47
2018-11-13T18:23:53.888Z,1.47
2018-11-13T18:26:20.961Z,0.73
2018-11-13T18:28:48.078Z,1.30
2018-11-13T18:31:15.743Z,1.20
2018-11-13T18:33:43.023Z,1.07
2018-11-13T18:36:10.012Z,3.23
2018-11-13T18:38:37.187Z,1.47
2018-11-13T18:41:04.491Z,3.50
2018-11-13T18:43:31.511Z,1.17
2018-11-13T18:45:58.515Z,1.97
2018-11-13T18:48:25.859Z,2.00
2018-11-13T18:50:52.885Z,9.03
2018-11-13T18:53:19.953Z,7.90
2018-11-13T18:55:46.932Z,1.87
2018-11-13T18:58:13.918Z,2.33
2018-11-13T19:00:41.300Z,3.17
2018-11-13T19:03:09.756Z,1.97
2018-11-13T19:05:36.761Z,2.53
2018-11-13T19:08:04.787Z,3.37
2018-11-13T19:10:52.622Z,3.43
2018-11-13T19:13:21.237Z,6.47
2018-11-13T19:15:50.848Z,8.13
2018-11-13T19:18:18.696Z,3.20
2018-11-13T19:20:45.698Z,4.67
2018-11-13T19:23:13.378Z,6.47
2018-11-13T19:25:40.645Z,4.23
2018-11-13T19:28:07.684Z,6.43
2018-11-13T19:30:34.944Z,5.33
2018-11-13T19:33:01.957Z,12.10
2018-11-13T19:35:29.105Z,5.80
2018-11-13T19:37:56.012Z,3.43
2018-11-13T19:40:24.270Z,5.40
2018-11-13T19:42:52.020Z,3.50
2018-11-13T19:45:19.661Z,6.93
2018-11-13T19:47:46.625Z,5.70
2018-11-13T19:50:15.325Z,8.80
2018-11-13T19:52:42.434Z,6.53
2018-11-13T19:55:11.259Z,4.57
2018-11-13T19:57:39.088Z,5.87
2018-11-13T20:00:09.861Z,9.93
2018-11-13T20:02:37.688Z,5.80
2018-11-13T20:05:06.140Z,12.67
2018-11-13T20:07:34.148Z,5.23
2018-11-13T20:10:01.453Z,6.47
2018-11-13T20:12:28.488Z,5.17
2018-11-13T20:14:55.546Z,9.27
2018-11-13T20:17:22.547Z,6.77
2018-11-13T20:19:49.531Z,11.63
2018-11-13T20:22:16.766Z,4.20
2018-11-13T20:24:43.902Z,8.40
2018-11-13T20:27:10.879Z,5.43
2018-11-13T20:29:38.522Z,6.10
2018-11-13T20:32:05.572Z,7.90
2018-11-13T20:34:32.644Z,7.33
2018-11-13T20:36:59.695Z,9.60
2018-11-13T20:39:26.727Z,10.60
2018-11-13T20:41:53.752Z,6.60
2018-11-13T20:44:20.780Z,8.50
2018-11-13T20:46:47.761Z,4.70
2018-11-13T20:49:15.268Z,9.13
2018-11-13T20:51:42.705Z,8.50
2018-11-13T20:54:09.863Z,6.97
2018-11-13T20:56:37.039Z,14.57
2018-11-13T20:59:04.417Z,5.50
2018-11-13T21:01:31.461Z,6.50
2018-11-13T21:03:58.524Z,7.60
2018-11-13T21:06:26.025Z,10.20
2018-11-13T21:08:53.060Z,11.50
2018-11-13T21:11:20.441Z,7.23
2018-11-13T21:13:47.501Z,6.97
2018-11-13T21:16:14.569Z,6.77
2018-11-13T21:18:41.519Z,8.40
2018-11-13T21:21:08.859Z,8.63
2018-11-13T21:23:35.910Z,12.83
2018-11-13T21:26:04.767Z,13.30
2018-11-13T21:28:31.918Z,16.87
2018-11-13T21:30:58.971Z,10.27
2018-11-13T21:33:25.993Z,13.70
2018-11-13T21:35:53.220Z,8.07
2018-11-13T21:38:20.300Z,9.60
2018-11-13T21:40:47.511Z,11.93
2018-11-13T21:43:14.708Z,12.47
2018-11-13T21:45:41.711Z,18.17
2018-11-13T21:48:08.778Z,10.80
2018-11-13T21:50:36.380Z,17.67
2018-11-13T21:53:03.434Z,15.47
2018-11-13T21:55:30.457Z,10.90
2018-11-13T21:57:57.753Z,13.50
2018-11-13T22:00:28.702Z,10.03
2018-11-13T22:02:57.928Z,13.97
2018-11-13T22:05:26.082Z,14.10
2018-11-13T22:07:53.132Z,10.10
2018-11-13T22:10:20.335Z,18.37
2018-11-13T22:12:47.742Z,13.80
2018-11-13T22:15:16.005Z,11.03
2018-11-13T22:17:43.817Z,13.80
2018-11-13T22:20:11.840Z,15.37
2018-11-13T22:22:38.908Z,12.67
2018-11-13T22:25:10.773Z,18.13
2018-11-13T22:27:38.017Z,10.13
2018-11-13T22:30:05.681Z,12.43
2018-11-13T22:32:32.752Z,11.07
2018-11-13T22:34:59.840Z,8.17
2018-11-13T22:37:26.881Z,13.83
2018-11-13T22:39:54.141Z,11.17
2018-11-13T22:42:21.094Z,13.63
2018-11-13T22:44:48.232Z,8.70
2018-11-13T22:47:15.368Z,12.70
2018-11-13T22:49:42.893Z,10.73
2018-11-13T22:52:09.886Z,8.80
2018-11-13T22:54:36.916Z,9.40
2018-11-13T22:57:04.104Z,9.43
2018-11-13T22:59:31.148Z,9.17
2018-11-13T23:01:58.166Z,7.57
2018-11-13T23:04:25.236Z,13.27
2018-11-13T23:06:52.237Z,13.17
2018-11-13T23:09:19.340Z,9.20
2018-11-13T23:11:46.355Z,13.33
2018-11-13T23:14:13.649Z,16.67
2018-11-13T23:16:41.048Z,6.73
2018-11-13T23:19:08.076Z,9.37
2018-11-13T23:21:35.085Z,9.90
2018-11-13T23:24:02.591Z,14.87
2018-11-13T23:26:29.791Z,13.93
2018-11-13T23:28:56.868Z,10.30
2018-11-13T23:31:24.160Z,8.73
2018-11-13T23:33:51.207Z,12.37
2018-11-13T23:36:18.334Z,10.53
2018-11-13T23:38:45.285Z,11.27
2018-11-13T23:41:12.303Z,9.03
2018-11-13T23:43:39.312Z,13.70
2018-11-13T23:46:06.491Z,8.27
2018-11-13T23:48:33.671Z,13.93
2018-11-13T23:51:00.566Z,8.70
2018-11-13T23:53:27.775Z,10.33
2018-11-13T23:55:54.802Z,9.87
2018-11-13T23:58:21.802Z,16.57
